Time;durP1;ratioP1;P1;durP2;ratioP2;P2;SDS_P1;SDS_P2;PMS_P1;PMS_P2;Temp;Humidity;BMP_temperature;BMP_pressure;BME280_temperature;BME280_humidity;BME280_pressure;Samples;Min_cycle;Max_cycle;Signal;HPM_P1;HPM_P2
2023/10/17 00:01:18;;;;;;;;;;;7.90;55.90;;;3.09;100.00;95491.22;5024051;28;20327;-47
2023/10/17 00:03:47;;;;;;;;;;;7.90;55.90;;;3.07;100.00;95493.25;5020078;28;19992;-46
2023/10/17 00:06:16;;;;;;;;;;;7.90;56.50;;;3.05;100.00;95492.69;5023481;28;19915;-51
2023/10/17 00:08:44;;;;;;;;;;;7.80;55.90;;;2.97;100.00;95489.31;5019606;28;19908;-50
2023/10/17 00:11:14;;;;;;;;;;;7.80;55.90;;;2.91;100.00;95497.28;5020899;28;19909;-45
2023/10/17 00:13:45;;;;;;;;;;;7.70;56.40;;;2.87;100.00;95496.13;5022928;28;20004;-53
2023/10/17 00:16:17;;;;;;;;;;;7.70;55.80;;;2.80;100.00;95490.91;5022245;28;20007;-48
2023/10/17 00:18:43;;;;;;;;;;;7.70;55.90;;;2.82;100.00;95485.44;5022519;28;19919;-53
2023/10/17 00:21:22;;;;;;;;;;;7.60;55.90;;;2.78;100.00;95483.22;5021223;28;19909;-48
2023/10/17 00:23:51;;;;;;;;;;;7.60;56.00;;;2.73;100.00;95480.47;5018751;28;19978;-49
2023/10/17 00:26:22;;;;;;;;;;;7.60;56.10;;;2.71;100.00;95479.06;5018555;28;20017;-52
2023/10/17 00:28:49;;;;;;;;;;;7.50;56.10;;;2.68;100.00;95477.66;5023760;28;19919;-50
2023/10/17 00:31:15;;;;;;;;;;;7.50;56.10;;;2.68;100.00;95472.41;5021479;28;19943;-49
2023/10/17 00:33:41;;;;;;;;;;;7.50;56.20;;;2.68;100.00;95471.63;5020822;28;20829;-54
2023/10/17 00:36:14;;;;;;;;;;;7.50;56.40;;;2.69;100.00;95479.28;5018439;28;19959;-48
2023/10/17 00:38:43;;;;;;;;;;;7.50;56.50;;;2.73;100.00;95469.16;5023042;28;19909;-48
2023/10/17 00:41:18;;;;;;;;;;;7.50;56.60;;;2.73;100.00;95474.41;5021553;28;19962;-49
2023/10/17 00:43:44;;;;;;;;;;;7.50;56.70;;;2.73;100.00;95477.03;5020164;28;19916;-47
2023/10/17 00:46:10;;;;;;;;;;;7.50;56.80;;;2.71;100.00;95476.44;5020621;28;19909;-53
2023/10/17 00:48:37;;;;;;;;;;;7.50;56.80;;;2.68;100.00;95479.50;5022758;28;19913;-49
2023/10/17 00:51:09;;;;;;;;;;;7.50;56.80;;;2.67;100.00;95476.06;5021320;28;20367;-50
2023/10/17 00:53:39;;;;;;;;;;;7.50;56.80;;;2.63;100.00;95463.56;5017830;28;19968;-51
2023/10/17 00:56:07;;;;;;;;;;;7.50;56.80;;;2.64;100.00;95466.00;5021172;28;20385;-47
2023/10/17 00:58:33;;;;;;;;;;;7.40;56.90;;;2.62;100.00;95467.22;5020537;28;19923;-48
2023/10/17 01:01:09;;;;;;;;;;;7.40;56.90;;;2.62;100.00;95452.25;5019539;28;20358;-49
2023/10/17 01:03:43;;;;;;;;;;;7.40;57.00;;;2.62;100.00;95456.69;5022305;28;20006;-52
2023/10/17 01:06:36;;;;;;;;;;;7.40;57.10;;;2.63;100.00;95451.22;5021316;28;20108;-46
2023/10/17 01:09:18;;;;;;;;;;;7.40;57.10;;;2.63;100.00;95453.84;5019217;28;19979;-47
2023/10/17 01:11:45;;;;;;;;;;;7.40;57.10;;;2.64;100.00;95458.09;5018562;28;19909;-47
2023/10/17 01:14:21;;;;;;;;;;;7.40;57.20;;;2.63;100.00;95464.34;5020112;28;19939;-46
2023/10/17 01:16:52;;;;;;;;;;;7.40;57.20;;;2.64;100.00;95459.94;5018730;28;19909;-54
2023/10/17 01:19:21;;;;;;;;;;;7.40;57.30;;;2.64;100.00;95463.34;5019368;28;20577;-47
2023/10/17 01:21:48;;;;;;;;;;;7.40;57.30;;;2.65;100.00;95454.44;5018981;28;19981;-50
2023/10/17 01:24:15;;;;;;;;;;;7.40;57.40;;;2.64;100.00;95454.66;5021836;28;19919;-45
2023/10/17 01:26:47;;;;;;;;;;;7.40;57.40;;;2.64;100.00;95455.47;5020350;28;20272;-52
2023/10/17 01:29:12;;;;;;;;;;;7.40;57.50;;;2.61;100.00;95447.22;5018414;28;19930;-52
2023/10/17 01:31:42;;;;;;;;;;;7.40;57.40;;;2.60;100.00;95456.94;5020255;28;19916;-47
2023/10/17 01:34:09;;;;;;;;;;;7.40;57.50;;;2.60;100.00;95445.59;5018712;28;20343;-47
2023/10/17 01:36:36;;;;;;;;;;;7.40;57.60;;;2.60;100.00;95442.94;5021663;28;19985;-48
2023/10/17 01:39:06;;;;;;;;;;;7.40;57.60;;;2.60;100.00;95443.78;5021065;28;20020;-45
2023/10/17 01:41:32;;;;;;;;;;;7.40;57.70;;;2.60;100.00;95437.69;5020047;28;19966;-49
2023/10/17 01:43:58;;;;;;;;;;;7.40;57.70;;;2.60;100.00;95437.69;5018797;28;19974;-50
2023/10/17 01:46:28;;;;;;;;;;;7.40;57.80;;;2.60;100.00;95437.69;5018129;28;20007;-51
2023/10/17 01:48:56;;;;;;;;;;;7.30;57.70;;;2.58;100.00;95437.13;5020648;28;20045;-50
2023/10/17 01:51:24;;;;;;;;;;;7.40;57.80;;;2.59;100.00;95444.78;5020530;28;19959;-49
2023/10/17 01:53:51;;;;;;;;;;;7.40;57.90;;;2.58;100.00;95440.56;5014727;28;19917;-53
2023/10/17 01:56:26;;;;;;;;;;;7.30;57.80;;;2.54;100.00;95442.03;5017538;28;19916;-47
2023/10/17 01:58:55;;;;;;;;;;;7.30;57.90;;;2.54;100.00;95453.34;5020031;28;20367;-54
2023/10/17 02:01:29;;;;;;;;;;;7.30;57.90;;;2.49;100.00;95445.28;5020417;28;19916;-46
2023/10/17 02:04:03;;;;;;;;;;;7.30;57.90;;;2.49;100.00;95444.50;5016895;28;20279;-49
2023/10/17 02:06:32;;;;;;;;;;;7.30;57.90;;;2.45;100.00;95436.22;5018779;28;19913;-50
2023/10/17 02:08:59;;;;;;;;;;;7.30;58.00;;;2.42;100.00;95444.56;5019156;28;19960;-53
2023/10/17 02:11:34;;;;;;;;;;;7.30;58.00;;;2.44;100.00;95444.31;5021781;28;19909;-52
2023/10/17 02:14:01;;;;;;;;;;;7.20;58.10;;;2.45;100.00;95443.31;5018961;28;20676;-47
2023/10/17 02:16:29;;;;;;;;;;;7.20;58.20;;;2.46;100.00;95450.97;5019641;28;19909;-46
2023/10/17 02:19:07;;;;;;;;;;;7.20;58.20;;;2.46;100.00;95447.53;5019590;28;19917;-46
2023/10/17 02:21:38;;;;;;;;;;;7.20;58.40;;;2.47;100.00;95449.16;5014535;28;19908;-46
2023/10/17 02:24:08;;;;;;;;;;;7.20;58.40;;;2.47;100.00;95446.50;5017833;28;19912;-47
2023/10/17 02:26:54;;;;;;;;;;;7.20;58.50;;;2.43;100.00;95442.72;5018417;28;19920;-50
2023/10/17 02:29:24;;;;;;;;;;;7.20;58.50;;;2.40;100.00;95441.31;5018656;28;20310;-53
2023/10/17 02:31:52;;;;;;;;;;;7.20;58.60;;;2.37;100.00;95433.88;5020147;28;20333;-48
2023/10/17 02:34:23;;;;;;;;;;;7.20;58.70;;;2.36;100.00;95428.84;5017072;28;19932;-48
2023/10/17 02:36:50;;;;;;;;;;;7.20;58.60;;;2.36;100.00;95434.09;5016374;28;20077;-46
2023/10/17 02:39:16;;;;;;;;;;;7.10;58.60;;;2.37;100.00;95440.97;5018875;28;19913;-46
2023/10/17 02:41:57;;;;;;;;;;;7.20;58.80;;;2.40;100.00;95441.31;5019880;28;20155;-47
2023/10/17 02:44:24;;;;;;;;;;;7.10;58.90;;;2.40;100.00;95449.22;5020375;28;20275;-46
2023/10/17 02:46:50;;;;;;;;;;;7.10;58.90;;;2.40;100.00;95443.94;5018100;28;19963;-47
2023/10/17 02:49:16;;;;;;;;;;;7.20;59.10;;;2.41;100.00;95442.94;5021050;28;19908;-46
2023/10/17 02:51:43;;;;;;;;;;;7.10;59.10;;;2.42;100.00;95443.75;5020455;28;19920;-47
2023/10/17 02:54:12;;;;;;;;;;;7.20;59.80;;;2.41;100.00;95442.94;5015705;28;19917;-50
2023/10/17 02:56:38;;;;;;;;;;;7.10;59.20;;;2.44;100.00;95453.00;5021252;28;19912;-46
2023/10/17 02:59:12;;;;;;;;;;;7.20;59.30;;;2.42;100.00;95444.56;5025304;28;19913;-51
2023/10/17 03:01:48;;;;;;;;;;;7.20;59.20;;;2.42;100.00;95438.50;5023282;28;19909;-49
2023/10/17 03:04:17;;;;;;;;;;;7.20;59.30;;;2.40;100.00;95436.06;5022164;28;20245;-48
2023/10/17 03:06:48;;;;;;;;;;;7.20;59.30;;;2.38;100.00;95434.66;5023501;28;20449;-48
2023/10/17 03:14:39;;;;;;;;;;;7.10;59.30;;;2.35;100.00;95438.56;5026391;28;19924;-52
2023/10/17 03:17:09;;;;;;;;;;;7.10;59.40;;;2.34;100.00;95450.06;5023494;28;20391;-51
2023/10/17 03:19:37;;;;;;;;;;;7.10;59.40;;;2.35;100.00;95449.06;5026721;28;19909;-51
2023/10/17 03:22:24;;;;;;;;;;;7.10;59.50;;;2.34;100.00;95447.44;5024426;28;19916;-54
2023/10/17 03:24:59;;;;;;;;;;;7.10;59.50;;;2.32;100.00;95452.13;5023921;28;19986;-52
2023/10/17 03:27:35;;;;;;;;;;;7.10;59.60;;;2.32;100.00;95452.13;5025231;28;19916;-51
2023/10/17 03:30:08;;;;;;;;;;;7.10;60.30;;;2.31;100.00;95455.75;5024083;28;19958;-51
2023/10/17 03:32:34;;;;;;;;;;;7.10;59.70;;;2.30;100.00;95457.59;5023788;28;19963;-48
2023/10/17 03:35:07;;;;;;;;;;;7.10;59.70;;;2.30;100.00;95460.22;5023467;28;20307;-50
2023/10/17 03:37:33;;;;;;;;;;;7.10;59.80;;;2.27;100.00;95458.03;5023057;28;19955;-46
2023/10/17 03:40:18;;;;;;;;;;;7.10;59.80;;;2.25;100.00;95454.78;5022445;28;19908;-46
2023/10/17 03:42:53;;;;;;;;;;;7.10;59.90;;;2.23;100.00;95456.06;5022292;28;20705;-48
2023/10/17 03:47:53;;;;;;;;;;;7.00;59.80;;;2.24;100.00;95462.91;5021828;28;19909;-48
2023/10/17 03:50:31;;;;;;;;;;;7.10;59.90;;;2.23;100.00;95456.84;5024519;28;20280;-53
2023/10/17 03:53:15;;;;;;;;;;;7.00;59.90;;;2.24;100.00;95463.72;5023079;28;19944;-49
2023/10/17 03:55:48;;;;;;;;;;;7.00;59.90;;;2.24;100.00;95460.28;5024449;28;20047;-54
2023/10/17 03:58:24;;;;;;;;;;;7.00;59.90;;;2.22;100.00;95449.16;5024511;28;19915;-50
2023/10/17 04:00:52;;;;;;;;;;;7.00;60.00;;;2.22;100.00;95459.69;5022870;28;20393;-49
2023/10/17 04:03:25;;;;;;;;;;;7.00;60.00;;;2.21;100.00;95456.25;5015655;28;19913;-52
2023/10/17 04:06:02;;;;;;;;;;;7.00;60.10;;;2.25;100.00;95462.69;5023007;28;19920;-49
2023/10/17 04:08:34;;;;;;;;;;;7.00;60.10;;;2.27;100.00;95463.28;5023390;28;19916;-52
2023/10/17 04:13:52;;;;;;;;;;;7.00;60.20;;;2.31;100.00;95467.06;5025374;28;20326;-51
2023/10/17 04:16:27;;;;;;;;;;;7.00;60.20;;;2.33;100.00;95466.88;5023799;28;19966;-49
2023/10/17 04:19:00;;;;;;;;;;;7.00;60.30;;;2.35;100.00;95472.72;5022821;28;19999;-46
2023/10/17 04:21:45;;;;;;;;;;;7.10;60.40;;;2.33;100.00;95464.25;5024542;28;19993;-46
2023/10/17 04:24:13;;;;;;;;;;;7.10;60.40;;;2.36;100.00;95463.03;5021905;28;20559;-50
2023/10/17 04:26:48;;;;;;;;;;;7.10;60.30;;;2.37;100.00;95465.41;5023094;28;19931;-48
2023/10/17 04:29:21;;;;;;;;;;;7.10;60.30;;;2.35;100.00;95459.59;5022645;28;19963;-52
2023/10/17 04:31:47;;;;;;;;;;;7.10;60.20;;;2.32;100.00;95460.03;5021329;28;19909;-54
2023/10/17 04:34:26;;;;;;;;;;;7.10;60.20;;;2.33;100.00;95453.72;5021694;28;19927;-49
2023/10/17 04:36:55;;;;;;;;;;;7.10;60.30;;;2.38;100.00;95459.13;5022467;28;22330;-52
2023/10/17 04:44:22;;;;;;;;;;;7.20;60.50;;;2.46;100.00;95452.81;5022006;28;20294;-48
2023/10/17 04:47:38;;;;;;;;;;;7.20;60.50;;;2.53;100.00;95458.81;5022490;28;20407;-48
2023/10/17 04:49:36;;;;;;;;;;;7.30;60.60;;;2.57;100.00;95454.75;5015766;28;19908;-49
2023/10/17 04:52:09;;;;;;;;;;;7.30;60.60;;;2.53;100.00;95453.53;5020092;28;19909;-50
2023/10/17 04:57:18;;;;;;;;;;;7.40;60.60;;;2.62;100.00;95441.72;5023260;28;19917;-52
2023/10/17 05:07:34;;;;;;;;;;;7.40;60.60;;;2.60;100.00;95443.78;5022355;28;19963;-48
2023/10/17 06:19:15;;;;;;;;;;;7.60;61.30;;;2.75;100.00;95472.34;5023548;28;19924;-53
2023/10/17 06:22:49;;;;;;;;;;;7.70;61.40;;;2.82;100.00;95481.00;5022962;28;20015;-50
2023/10/17 06:24:45;;;;;;;;;;;7.70;61.30;;;2.78;100.00;95477.16;5021776;28;19909;-46
2023/10/17 06:35:31;;;;;;;;;;;7.90;61.10;;;2.82;100.00;95493.31;5019808;28;19920;-49
2023/10/17 06:37:59;;;;;;;;;;;8.00;61.20;;;2.95;100.00;95490.56;5019299;28;19916;-48
2023/10/17 06:40:37;;;;;;;;;;;8.00;61.10;;;3.03;100.00;95495.53;5023072;28;19909;-52
2023/10/17 06:43:13;;;;;;;;;;;8.10;61.20;;;3.10;100.00;95490.19;5019674;28;19919;-50
2023/10/17 06:45:54;;;;;;;;;;;8.20;61.30;;;3.19;100.00;95496.78;5018503;28;20493;-48
2023/10/17 06:48:31;;;;;;;;;;;8.20;61.20;;;3.26;100.00;95492.25;5018986;28;20288;-56
2023/10/17 06:53:48;;;;;;;;;;;8.40;61.30;;;3.47;100.00;95494.41;5015249;28;19937;-48
2023/10/17 06:56:17;;;;;;;;;;;8.50;61.40;;;3.54;100.00;95481.19;5022399;28;19912;-52
2023/10/17 06:58:44;;;;;;;;;;;8.60;61.40;;;3.60;100.00;95476.81;5018779;28;20006;-49
2023/10/17 07:01:24;;;;;;;;;;;8.70;61.30;;;3.71;100.00;95471.59;5018463;28;19947;-49
2023/10/17 07:03:54;;;;;;;;;;;8.80;61.30;;;3.78;100.00;95473.34;5022675;28;19912;-48
2023/10/17 07:06:24;;;;;;;;;;;8.90;61.20;;;3.87;100.00;95472.00;5019093;28;20035;-53
2023/10/17 07:08:52;;;;;;;;;;;9.00;61.20;;;3.88;100.00;95476.25;5028051;28;20341;-47
2023/10/17 07:16:42;;;;;;;;;;;9.30;61.00;;;4.21;100.00;95483.66;5022164;28;20691;-51
2023/10/17 07:19:44;;;;;;;;;;;9.40;61.00;;;4.28;100.00;95478.28;5019708;28;20367;-47
2023/10/17 07:22:06;;;;;;;;;;;9.50;61.00;;;4.35;100.00;95477.13;5018848;28;20023;-55
2023/10/17 07:24:36;;;;;;;;;;;9.60;60.90;;;4.43;100.00;95485.75;5021754;28;19920;-50
2023/10/17 07:27:19;;;;;;;;;;;9.70;61.30;;;4.47;100.00;95492.19;5018654;28;19974;-56
2023/10/17 07:30:10;;;;;;;;;;;9.80;60.70;;;4.54;100.00;95492.88;5020521;28;19909;-51
2023/10/17 07:32:45;;;;;;;;;;;9.90;60.60;;;4.60;100.00;95489.31;5018117;28;19916;-51
2023/10/17 07:35:23;;;;;;;;;;;10.00;60.60;;;4.68;100.00;95477.63;5016207;28;20334;-56
2023/10/17 07:37:57;;;;;;;;;;;10.10;60.50;;;4.68;100.00;95472.34;5009057;28;19920;-52
2023/10/17 07:40:42;;;;;;;;;;;10.20;60.40;;;4.73;100.00;95475.09;5010958;28;19921;-50
2023/10/17 07:43:08;;;;;;;;;;;10.30;61.10;;;4.69;100.00;95466.84;5016836;28;19962;-54
2023/10/17 07:45:40;;;;;;;;;;;10.40;60.20;;;4.82;100.00;95466.59;5029020;28;19916;-50
2023/10/17 07:48:26;;;;;;;;;;;10.50;60.20;;;4.81;100.00;95465.00;5019511;28;19916;-48
2023/10/17 07:50:54;;;;;;;;;;;10.50;60.10;;;4.79;100.00;95468.88;5017756;28;19920;-49
2023/10/17 07:53:21;;;;;;;;;;;10.60;60.80;;;4.90;100.00;95465.44;5013756;28;20207;-52
2023/10/17 07:55:52;;;;;;;;;;;10.70;60.00;;;4.94;100.00;95468.44;5016539;28;19909;-52
2023/10/17 08:01:10;;;;;;;;;;;10.70;59.90;;;5.02;100.00;95462.81;5020467;28;19953;-51
2023/10/17 08:03:51;;;;;;;;;;;10.80;59.90;;;5.10;100.00;95473.00;5028942;28;19973;-50
2023/10/17 08:06:22;;;;;;;;;;;10.80;59.80;;;5.17;100.00;95492.16;5016631;28;20340;-48
2023/10/17 08:08:49;;;;;;;;;;;10.90;59.80;;;5.31;100.00;95495.34;5028422;28;19958;-50
2023/10/17 08:11:28;;;;;;;;;;;10.90;59.80;;;5.23;100.00;95491.25;5029864;28;19912;-47
2023/10/17 08:14:03;;;;;;;;;;;11.00;59.80;;;5.01;100.00;95474.38;5023851;28;20355;-47
2023/10/17 08:16:29;;;;;;;;;;;11.00;59.70;;;5.16;100.00;95476.53;5027155;28;20011;-48
2023/10/17 08:19:12;;;;;;;;;;;11.10;59.60;;;5.29;100.00;95478.91;5032868;28;19916;-47
2023/10/17 08:22:09;;;;;;;;;;;11.20;59.50;;;5.45;100.00;95488.78;5033838;28;19916;-47
2023/10/17 08:29:48;;;;;;;;;;;11.40;59.40;;;5.66;100.00;95471.44;5032676;28;19916;-53
2023/10/17 08:34:51;;;;;;;;;;;11.50;59.30;;;5.78;100.00;95480.13;4991244;28;19917;-50
2023/10/17 08:37:26;;;;;;;;;;;11.60;59.20;;;5.83;100.00;95482.09;4988240;28;19917;-49
2023/10/17 08:39:52;;;;;;;;;;;11.70;59.10;;;5.89;100.00;95475.84;4991323;28;19917;-51
2023/10/17 08:42:29;;;;;;;;;;;11.70;59.00;;;5.95;100.00;95480.19;4986566;28;19910;-49
2023/10/17 08:44:57;;;;;;;;;;;11.80;59.00;;;5.88;100.00;95482.16;4990787;28;19920;-51
2023/10/17 08:47:30;;;;;;;;;;;11.80;59.00;;;5.93;100.00;95481.50;4993466;28;20311;-52
2023/10/17 08:50:04;;;;;;;;;;;11.80;58.80;;;6.00;100.00;95484.78;4990392;28;19928;-51
2023/10/17 08:52:37;;;;;;;;;;;11.90;58.80;;;6.10;100.00;95482.31;4989046;28;20391;-50
2023/10/17 08:55:04;;;;;;;;;;;12.00;58.80;;;6.17;100.00;95482.97;4988605;28;19913;-49
2023/10/17 08:57:31;;;;;;;;;;;12.00;58.80;;;6.08;100.00;95483.59;4992841;28;19913;-48
2023/10/17 09:02:40;;;;;;;;;;;12.00;58.60;;;6.14;100.00;95482.63;4993221;28;19917;-49
2023/10/17 09:05:18;;;;;;;;;;;12.10;58.70;;;6.05;100.00;95484.06;4991012;28;20418;-51
2023/10/17 09:07:48;;;;;;;;;;;12.10;58.60;;;6.04;100.00;95470.03;4994181;28;20000;-48
2023/10/17 09:10:21;;;;;;;;;;;12.20;58.50;;;6.06;100.00;95469.81;4993121;28;20003;-48
2023/10/17 09:15:55;;;;;;;;;;;12.40;58.30;;;6.15;100.00;95461.25;4992209;28;19991;-47
2023/10/17 09:18:29;;;;;;;;;;;12.40;58.30;;;6.11;100.00;95461.94;4991958;28;20018;-46
2023/10/17 09:20:56;;;;;;;;;;;12.40;58.10;;;6.18;100.00;95457.34;4993611;28;19917;-45
2023/10/17 09:23:22;;;;;;;;;;;12.50;58.10;;;6.26;100.00;95455.06;5010475;28;19913;-46
2023/10/17 09:26:19;;;;;;;;;;;12.50;58.10;;;6.37;100.00;95458.69;4983196;28;20369;-47
2023/10/17 09:28:47;;;;;;;;;;;12.50;58.00;;;6.54;100.00;95452.59;4990993;28;19955;-51
2023/10/17 09:31:15;;;;;;;;;;;12.60;58.00;;;6.73;100.00;95446.78;4992141;28;20004;-47
2023/10/17 09:33:43;;;;;;;;;;;12.90;58.00;;;6.78;100.00;95448.72;4991370;28;19944;-48
2023/10/17 09:36:11;;;;;;;;;;;13.10;57.90;;;6.61;100.00;95454.03;4991249;28;19909;-46
2023/10/17 09:38:43;;;;;;;;;;;13.20;57.60;;;6.80;100.00;95465.16;4992472;28;20013;-47
2023/10/17 09:41:19;;;;;;;;;;;13.40;57.40;;;6.95;100.00;95472.50;4986845;28;20360;-45
2023/10/17 09:43:51;;;;;;;;;;;13.50;57.40;;;7.05;99.63;95472.66;4983994;28;19920;-47
2023/10/17 09:46:25;;;;;;;;;;;13.60;57.10;;;7.12;97.64;95472.47;4988680;28;19948;-49
2023/10/17 09:48:53;;;;;;;;;;;13.70;57.10;;;7.14;98.57;95468.50;4983250;28;19917;-49
2023/10/17 09:51:29;;;;;;;;;;;13.80;56.90;;;7.17;97.90;95469.88;4989300;28;19915;-50
2023/10/17 09:53:58;;;;;;;;;;;13.90;56.70;;;7.29;97.41;95464.47;5002530;28;19967;-48
2023/10/17 09:56:34;;;;;;;;;;;13.90;56.50;;;7.33;97.05;95458.44;4990292;28;19909;-52
2023/10/17 09:59:13;;;;;;;;;;;14.00;56.50;;;7.31;96.56;95465.03;4990456;28;19932;-50
2023/10/17 10:01:40;;;;;;;;;;;14.10;56.50;;;7.45;97.64;95460.16;4987114;28;19937;-48
2023/10/17 10:04:07;;;;;;;;;;;14.20;56.30;;;7.60;96.24;95452.38;4986621;28;19913;-46
2023/10/17 10:06:36;;;;;;;;;;;14.30;56.10;;;7.61;94.95;95453.97;4987418;28;19916;-46
2023/10/17 10:09:06;;;;;;;;;;;14.40;56.20;;;7.62;95.83;95467.00;4989293;28;20514;-46
2023/10/17 10:11:49;;;;;;;;;;;14.40;56.00;;;7.24;95.74;95462.56;4987451;28;19921;-46
2023/10/17 10:14:30;;;;;;;;;;;14.50;55.90;;;7.25;98.52;95461.53;4988448;28;20017;-45
2023/10/17 10:17:03;;;;;;;;;;;14.40;55.70;;;7.38;97.04;95455.84;4990612;28;19955;-45
2023/10/17 10:19:41;;;;;;;;;;;14.30;55.70;;;7.29;96.54;95456.53;4984900;28;20515;-48
2023/10/17 10:22:10;;;;;;;;;;;14.30;55.60;;;7.47;96.44;95460.72;4986382;28;19910;-45
2023/10/17 10:24:37;;;;;;;;;;;14.30;55.60;;;7.54;95.96;95456.81;4989212;28;19910;-46
2023/10/17 10:27:14;;;;;;;;;;;14.30;55.60;;;7.67;94.94;95458.28;4990537;28;19909;-47
2023/10/17 10:29:44;;;;;;;;;;;14.30;55.60;;;7.68;94.32;95448.47;4987624;28;20390;-47
2023/10/17 10:32:25;;;;;;;;;;;14.30;55.60;;;7.83;94.73;95449.47;4988892;28;19917;-47
2023/10/17 10:34:52;;;;;;;;;;;14.40;55.50;;;7.88;93.71;95448.69;4989122;28;19917;-50
2023/10/17 10:37:22;;;;;;;;;;;14.40;55.50;;;7.97;93.27;95447.19;4989658;28;19913;-46
2023/10/17 10:40:14;;;;;;;;;;;14.40;55.50;;;7.81;92.66;95448.09;4989516;28;20015;-49
2023/10/17 10:42:49;;;;;;;;;;;14.40;55.40;;;7.88;93.76;95444.19;4988725;28;20008;-46
2023/10/17 10:45:29;;;;;;;;;;;14.40;55.30;;;7.98;93.42;95448.00;4989837;28;19916;-49
2023/10/17 10:47:58;;;;;;;;;;;14.50;55.30;;;7.94;93.12;95447.69;4990237;28;20306;-48
2023/10/17 10:50:34;;;;;;;;;;;14.50;55.30;;;8.11;92.37;95439.63;4990741;28;20334;-51
2023/10/17 10:53:17;;;;;;;;;;;14.70;55.10;;;8.21;91.31;95441.56;4990576;28;19910;-45
2023/10/17 10:55:52;;;;;;;;;;;14.80;55.00;;;8.34;90.11;95433.97;4989098;28;19913;-48
2023/10/17 10:58:18;;;;;;;;;;;15.00;54.90;;;8.38;90.32;95429.00;4991456;28;20291;-49
2023/10/17 11:00:45;;;;;;;;;;;15.30;54.70;;;8.56;89.01;95428.59;4986146;28;20372;-49
2023/10/17 11:03:11;;;;;;;;;;;15.40;54.60;;;8.66;87.62;95430.53;4989599;28;20368;-50
2023/10/17 11:05:56;;;;;;;;;;;15.60;54.40;;;8.64;88.29;95427.31;4986932;28;20376;-48
2023/10/17 11:08:23;;;;;;;;;;;15.70;54.20;;;8.70;86.61;95430.81;4985874;28;19921;-47
2023/10/17 11:10:49;;;;;;;;;;;15.90;54.10;;;8.88;86.68;95432.25;4983787;28;20387;-49
2023/10/17 11:13:19;;;;;;;;;;;16.10;53.90;;;8.98;85.61;95427.78;4987201;28;19909;-47
2023/10/17 11:15:46;;;;;;;;;;;16.40;53.70;;;9.25;84.96;95417.03;4987163;28;19939;-50
2023/10/17 11:18:12;;;;;;;;;;;16.80;53.50;;;9.08;84.20;95424.38;4985662;28;19936;-51
2023/10/17 11:20:40;;;;;;;;;;;17.00;53.20;;;9.13;85.68;95420.97;4991043;28;19909;-50
2023/10/17 11:23:13;;;;;;;;;;;17.10;52.90;;;9.41;83.43;95422.41;4990969;28;20016;-49
2023/10/17 11:25:46;;;;;;;;;;;17.40;52.80;;;9.29;84.05;95419.97;4990123;28;20020;-48
2023/10/17 11:28:16;;;;;;;;;;;17.60;52.50;;;9.15;83.74;95417.00;4987217;28;20356;-48
2023/10/17 11:30:42;;;;;;;;;;;18.00;52.20;;;9.59;83.32;95411.28;4992260;28;20428;-47
2023/10/17 11:33:28;;;;;;;;;;;18.50;51.90;;;10.09;80.14;95404.47;4992631;28;19920;-49
2023/10/17 11:35:58;;;;;;;;;;;18.90;51.60;;;10.51;78.39;95398.09;4992258;28;20003;-47
2023/10/17 11:38:35;;;;;;;;;;;19.30;51.20;;;11.09;74.96;95397.69;4993590;28;19909;-49
2023/10/17 11:41:03;;;;;;;;;;;19.80;51.00;;;11.45;74.38;95390.34;4989910;28;19962;-50
2023/10/17 11:43:34;;;;;;;;;;;20.20;50.60;;;11.71;72.41;95396.34;4991700;28;19913;-53
2023/10/17 11:46:03;;;;;;;;;;;20.50;50.40;;;11.88;71.05;95395.22;4992930;28;19936;-54
2023/10/17 11:48:33;;;;;;;;;;;20.70;50.10;;;12.10;69.68;95403.59;4991718;28;19996;-52
2023/10/17 11:51:17;;;;;;;;;;;20.80;49.80;;;11.89;68.15;95388.78;4991078;28;20306;-50
2023/10/17 11:54:09;;;;;;;;;;;20.80;49.50;;;11.94;69.57;95380.75;4990758;28;19921;-54
2023/10/17 11:56:39;;;;;;;;;;;20.80;49.20;;;12.09;68.99;95382.50;4993623;28;19909;-51
2023/10/17 11:59:18;;;;;;;;;;;20.80;49.10;;;12.06;68.60;95367.84;4991602;28;19921;-50
2023/10/17 12:01:52;;;;;;;;;;;20.90;48.80;;;12.35;68.54;95370.56;4991874;28;19909;-48
2023/10/17 12:04:19;;;;;;;;;;;21.10;48.70;;;12.26;68.21;95365.03;4987377;28;19955;-53
2023/10/17 12:06:48;;;;;;;;;;;21.40;48.50;;;12.50;68.39;95356.25;4992162;28;20280;-53
2023/10/17 12:09:17;;;;;;;;;;;21.60;48.20;;;12.82;66.83;95350.34;4992212;28;19962;-49
2023/10/17 12:11:48;;;;;;;;;;;21.80;48.00;;;13.02;66.88;95354.66;4991491;28;19916;-51
2023/10/17 12:14:21;;;;;;;;;;;22.00;47.80;;;12.67;65.89;95351.28;4992847;28;19917;-53
2023/10/17 12:16:54;;;;;;;;;;;22.10;47.50;;;12.78;65.27;95351.16;4990792;28;19921;-56
2023/10/17 12:19:27;;;;;;;;;;;22.20;47.20;;;13.09;65.93;95355.09;4990401;28;19913;-54
2023/10/17 12:21:55;;;;;;;;;;;22.40;47.10;;;13.48;63.96;95354.13;4992551;28;19979;-56
2023/10/17 12:24:28;;;;;;;;;;;22.60;47.00;;;13.65;63.15;95353.63;4993052;28;20008;-56
2023/10/17 12:26:56;;;;;;;;;;;22.90;46.80;;;13.89;61.54;95351.66;4994017;28;19956;-54
2023/10/17 12:29:26;;;;;;;;;;;23.20;46.60;;;14.24;61.04;95349.50;4993436;28;19980;-54
2023/10/17 12:32:02;;;;;;;;;;;23.40;46.40;;;14.35;60.48;95350.94;4991047;28;19921;-54
2023/10/17 12:34:28;;;;;;;;;;;23.60;46.30;;;14.08;60.54;95340.94;4993889;28;20280;-55
2023/10/17 12:36:57;;;;;;;;;;;23.80;46.00;;;14.37;60.25;95337.25;4986251;28;19917;-56
2023/10/17 12:39:31;;;;;;;;;;;23.80;45.80;;;14.39;59.09;95328.91;4993399;28;19909;-56
2023/10/17 12:41:58;;;;;;;;;;;23.90;45.50;;;14.63;59.00;95337.59;4992932;28;19913;-56
2023/10/17 12:44:25;;;;;;;;;;;24.10;45.30;;;14.89;57.78;95332.59;4993621;28;19967;-56
2023/10/17 12:46:51;;;;;;;;;;;24.40;45.10;;;15.02;57.52;95337.16;4993633;28;19914;-55
2023/10/17 12:49:16;;;;;;;;;;;24.60;44.60;;;15.20;56.71;95334.66;4992300;28;19960;-55
2023/10/17 12:51:43;;;;;;;;;;;24.80;44.30;;;15.48;54.96;95338.09;4993495;28;19910;-56
2023/10/17 12:54:09;;;;;;;;;;;24.80;44.00;;;15.70;54.38;95345.47;4992948;28;19914;-51
2023/10/17 12:56:39;;;;;;;;;;;24.90;43.70;;;15.68;54.65;95336.91;4993372;28;19909;-46
2023/10/17 12:59:12;;;;;;;;;;;25.00;43.60;;;15.84;54.73;95342.72;4992897;28;20055;-46
2023/10/17 13:01:38;;;;;;;;;;;25.20;43.50;;;15.84;55.27;95340.81;4992430;28;19916;-46
2023/10/17 13:04:04;;;;;;;;;;;25.40;43.30;;;16.01;55.09;95342.06;4993660;28;20376;-47
2023/10/17 13:06:30;;;;;;;;;;;25.50;43.10;;;16.09;54.61;95335.97;4991428;28;19917;-48
2023/10/17 13:08:56;;;;;;;;;;;25.50;42.80;;;15.86;54.71;95337.84;4992791;28;19909;-54
2023/10/17 13:11:24;;;;;;;;;;;25.60;42.70;;;15.76;55.76;95332.69;4993366;28;19916;-55
2023/10/17 13:13:50;;;;;;;;;;;25.50;42.40;;;15.68;55.83;95326.94;4991237;28;20022;-55
2023/10/17 13:16:16;;;;;;;;;;;25.40;41.90;;;15.69;57.27;95323.16;4991211;28;19909;-52
2023/10/17 13:18:42;;;;;;;;;;;25.30;41.80;;;15.57;56.43;95322.06;4992147;28;20391;-55
2023/10/17 13:21:14;;;;;;;;;;;25.20;41.60;;;15.43;58.18;95325.59;4986772;28;20010;-54
2023/10/17 13:23:40;;;;;;;;;;;25.10;41.50;;;15.62;57.99;95325.44;4990718;28;19917;-54
2023/10/17 13:26:15;;;;;;;;;;;25.00;41.40;;;15.60;57.46;95316.88;4993074;28;20364;-55
2023/10/17 13:28:42;;;;;;;;;;;25.10;41.30;;;15.86;56.98;95324.41;4992419;28;19917;-53
2023/10/17 13:31:12;;;;;;;;;;;25.10;41.20;;;16.15;56.02;95315.94;4989224;28;19984;-55
2023/10/17 13:33:39;;;;;;;;;;;25.20;41.30;;;16.13;56.10;95316.22;4989713;28;19924;-51
2023/10/17 13:36:16;;;;;;;;;;;25.40;41.30;;;16.15;54.94;95319.41;4992045;28;19909;-54
2023/10/17 13:38:43;;;;;;;;;;;25.60;41.10;;;16.11;55.05;95326.50;4992529;28;19919;-55
2023/10/17 13:41:10;;;;;;;;;;;25.60;40.80;;;16.24;54.34;95324.84;4990426;28;19916;-54
2023/10/17 13:43:39;;;;;;;;;;;25.60;40.60;;;16.35;54.28;95312.72;4991847;28;19913;-54
2023/10/17 13:46:14;;;;;;;;;;;25.70;40.50;;;16.31;54.33;95313.66;4992705;28;20004;-53
2023/10/17 13:48:50;;;;;;;;;;;26.00;40.30;;;16.76;54.15;95300.16;5006579;28;19913;-45
2023/10/17 13:51:18;;;;;;;;;;;26.40;40.40;;;16.89;52.79;95307.31;4992193;28;19909;-47